sensor_id;sensor_type;location;lat;lon;timestamp;temperature;humidity
3876;DHT22;1953;51.222;6.624;2023-07-31T00:04:30;18.10;1.00
3876;DHT22;1953;51.222;6.624;2023-07-31T00:09:13;18.20;1.00
3876;DHT22;1953;51.222;6.624;2023-07-31T00:15:47;18.20;1.00
3876;DHT22;1953;51.222;6.624;2023-07-31T00:20:29;18.10;1.00
3876;DHT22;1953;51.222;6.624;2023-07-31T00:25:12;18.10;1.00
3876;DHT22;1953;51.222;6.624;2023-07-31T00:29:54;18.10;1.00
3876;DHT22;1953;51.222;6.624;2023-07-31T00:34:38;18.10;1.00
3876;DHT22;1953;51.222;6.624;2023-07-31T00:39:21;18.20;1.00
3876;DHT22;1953;51.222;6.624;2023-07-31T00:44:03;18.20;1.00
3876;DHT22;1953;51.222;6.624;2023-07-31T00:48:46;18.20;1.00
3876;DHT22;1953;51.222;6.624;2023-07-31T00:53:30;18.20;1.00
3876;DHT22;1953;51.222;6.624;2023-07-31T00:58:13;18.20;1.00
3876;DHT22;1953;51.222;6.624;2023-07-31T01:02:56;18.30;1.00
3876;DHT22;1953;51.222;6.624;2023-07-31T01:07:45;18.30;1.00
3876;DHT22;1953;51.222;6.624;2023-07-31T01:12:31;18.30;1.00
3876;DHT22;1953;51.222;6.624;2023-07-31T01:17:14;18.30;1.00
3876;DHT22;1953;51.222;6.624;2023-07-31T01:22:21;18.30;1.00
3876;DHT22;1953;51.222;6.624;2023-07-31T01:27:11;18.30;1.00
3876;DHT22;1953;51.222;6.624;2023-07-31T01:31:55;18.30;1.00
3876;DHT22;1953;51.222;6.624;2023-07-31T01:36:39;18.30;1.00
3876;DHT22;1953;51.222;6.624;2023-07-31T01:41:21;18.30;1.00
3876;DHT22;1953;51.222;6.624;2023-07-31T01:46:05;18.30;1.00
3876;DHT22;1953;51.222;6.624;2023-07-31T01:50:48;18.30;1.00
3876;DHT22;1953;51.222;6.624;2023-07-31T01:55:30;18.30;1.00
3876;DHT22;1953;51.222;6.624;2023-07-31T02:00:13;18.40;1.00
3876;DHT22;1953;51.222;6.624;2023-07-31T02:04:57;18.30;1.00
3876;DHT22;1953;51.222;6.624;2023-07-31T02:09:39;18.40;1.00
3876;DHT22;1953;51.222;6.624;2023-07-31T02:14:22;18.40;1.00
3876;DHT22;1953;51.222;6.624;2023-07-31T02:19:05;18.40;1.00
3876;DHT22;1953;51.222;6.624;2023-07-31T02:23:49;18.40;1.00
3876;DHT22;1953;51.222;6.624;2023-07-31T02:28:31;18.40;1.00
3876;DHT22;1953;51.222;6.624;2023-07-31T02:33:14;18.40;1.00
3876;DHT22;1953;51.222;6.624;2023-07-31T02:37:57;18.40;1.00
3876;DHT22;1953;51.222;6.624;2023-07-31T02:42:41;18.40;1.00
3876;DHT22;1953;51.222;6.624;2023-07-31T02:47:23;18.40;1.00
3876;DHT22;1953;51.222;6.624;2023-07-31T02:52:06;18.40;1.00
3876;DHT22;1953;51.222;6.624;2023-07-31T02:56:49;18.40;1.00
3876;DHT22;1953;51.222;6.624;2023-07-31T03:01:33;18.40;1.00
3876;DHT22;1953;51.222;6.624;2023-07-31T03:06:15;18.70;1.00
3876;DHT22;1953;51.222;6.624;2023-07-31T03:10:58;18.40;1.00
3876;DHT22;1953;51.222;6.624;2023-07-31T03:15:42;18.60;1.00
3876;DHT22;1953;51.222;6.624;2023-07-31T03:20:26;18.50;1.00
3876;DHT22;1953;51.222;6.624;2023-07-31T03:25:09;18.60;1.00
3876;DHT22;1953;51.222;6.624;2023-07-31T03:29:52;18.60;1.00
3876;DHT22;1953;51.222;6.624;2023-07-31T03:34:34;18.70;1.00
3876;DHT22;1953;51.222;6.624;2023-07-31T03:39:18;18.70;1.00
3876;DHT22;1953;51.222;6.624;2023-07-31T03:44:01;17.90;1.00
3876;DHT22;1953;51.222;6.624;2023-07-31T03:48:43;18.70;1.00
3876;DHT22;1953;51.222;6.624;2023-07-31T03:53:26;18.70;1.00
3876;DHT22;1953;51.222;6.624;2023-07-31T03:58:09;18.70;1.00
3876;DHT22;1953;51.222;6.624;2023-07-31T04:02:52;18.70;1.00
3876;DHT22;1953;51.222;6.624;2023-07-31T04:07:35;18.60;1.00
3876;DHT22;1953;51.222;6.624;2023-07-31T04:12:17;18.60;1.00
3876;DHT22;1953;51.222;6.624;2023-07-31T04:17:01;18.60;1.00
3876;DHT22;1953;51.222;6.624;2023-07-31T04:21:43;18.70;1.00
3876;DHT22;1953;51.222;6.624;2023-07-31T04:26:26;18.60;1.00
3876;DHT22;1953;51.222;6.624;2023-07-31T04:31:08;18.70;1.00
3876;DHT22;1953;51.222;6.624;2023-07-31T04:35:53;18.70;1.00
3876;DHT22;1953;51.222;6.624;2023-07-31T04:40:36;18.70;1.00
3876;DHT22;1953;51.222;6.624;2023-07-31T04:45:18;18.70;1.00
3876;DHT22;1953;51.222;6.624;2023-07-31T04:50:01;18.70;1.00
3876;DHT22;1953;51.222;6.624;2023-07-31T04:54:45;18.80;1.00
3876;DHT22;1953;51.222;6.624;2023-07-31T04:59:27;18.90;1.00
3876;DHT22;1953;51.222;6.624;2023-07-31T05:04:12;19.00;1.00
3876;DHT22;1953;51.222;6.624;2023-07-31T05:08:55;19.00;1.00
3876;DHT22;1953;51.222;6.624;2023-07-31T05:13:39;19.00;1.00
3876;DHT22;1953;51.222;6.624;2023-07-31T05:18:21;19.10;1.00
3876;DHT22;1953;51.222;6.624;2023-07-31T05:23:04;19.10;1.00
3876;DHT22;1953;51.222;6.624;2023-07-31T05:27:46;19.10;1.00
3876;DHT22;1953;51.222;6.624;2023-07-31T05:32:30;19.20;1.00
3876;DHT22;1953;51.222;6.624;2023-07-31T05:37:13;19.20;1.00
3876;DHT22;1953;51.222;6.624;2023-07-31T05:41:56;19.30;1.00
3876;DHT22;1953;51.222;6.624;2023-07-31T05:46:38;19.30;1.00
3876;DHT22;1953;51.222;6.624;2023-07-31T05:51:22;19.30;1.00
3876;DHT22;1953;51.222;6.624;2023-07-31T05:56:04;19.30;1.00
3876;DHT22;1953;51.222;6.624;2023-07-31T06:00:47;19.30;1.00
3876;DHT22;1953;51.222;6.624;2023-07-31T06:05:30;19.30;1.00
3876;DHT22;1953;51.222;6.624;2023-07-31T06:10:14;19.20;1.00
3876;DHT22;1953;51.222;6.624;2023-07-31T06:14:56;19.00;1.00
3876;DHT22;1953;51.222;6.624;2023-07-31T06:19:39;18.90;1.00
3876;DHT22;1953;51.222;6.624;2023-07-31T06:24:21;18.80;1.00
3876;DHT22;1953;51.222;6.624;2023-07-31T06:29:06;18.70;1.00
3876;DHT22;1953;51.222;6.624;2023-07-31T06:33:48;18.70;1.00
3876;DHT22;1953;51.222;6.624;2023-07-31T06:38:31;18.80;1.00
3876;DHT22;1953;51.222;6.624;2023-07-31T06:43:13;18.80;1.00
3876;DHT22;1953;51.222;6.624;2023-07-31T06:47:57;18.80;1.00
3876;DHT22;1953;51.222;6.624;2023-07-31T06:52:42;18.80;1.00
3876;DHT22;1953;51.222;6.624;2023-07-31T06:57:25;18.80;1.00
3876;DHT22;1953;51.222;6.624;2023-07-31T07:02:07;18.80;1.00
3876;DHT22;1953;51.222;6.624;2023-07-31T07:06:51;18.80;1.00
3876;DHT22;1953;51.222;6.624;2023-07-31T07:11:34;18.80;1.00
3876;DHT22;1953;51.222;6.624;2023-07-31T07:16:18;18.70;1.00
3876;DHT22;1953;51.222;6.624;2023-07-31T07:21:01;18.70;1.00
3876;DHT22;1953;51.222;6.624;2023-07-31T07:25:46;18.70;1.00
3876;DHT22;1953;51.222;6.624;2023-07-31T07:30:29;19.50;1.00
3876;DHT22;1953;51.222;6.624;2023-07-31T07:35:11;18.60;1.00
3876;DHT22;1953;51.222;6.624;2023-07-31T07:39:54;18.50;1.00
3876;DHT22;1953;51.222;6.624;2023-07-31T07:44:38;18.50;1.00
3876;DHT22;1953;51.222;6.624;2023-07-31T07:49:20;18.50;1.00
3876;DHT22;1953;51.222;6.624;2023-07-31T07:54:04;18.40;1.00
3876;DHT22;1953;51.222;6.624;2023-07-31T07:58:48;18.40;1.00
3876;DHT22;1953;51.222;6.624;2023-07-31T08:03:32;18.50;1.00
3876;DHT22;1953;51.222;6.624;2023-07-31T08:08:15;18.60;1.00
3876;DHT22;1953;51.222;6.624;2023-07-31T08:12:58;18.90;1.00
3876;DHT22;1953;51.222;6.624;2023-07-31T08:17:40;18.90;1.00
3876;DHT22;1953;51.222;6.624;2023-07-31T08:22:24;18.90;1.00
3876;DHT22;1953;51.222;6.624;2023-07-31T08:27:07;18.90;1.00
3876;DHT22;1953;51.222;6.624;2023-07-31T08:31:49;18.90;1.00
3876;DHT22;1953;51.222;6.624;2023-07-31T08:36:32;18.70;1.00
3876;DHT22;1953;51.222;6.624;2023-07-31T08:41:16;18.60;1.00
3876;DHT22;1953;51.222;6.624;2023-07-31T08:45:59;18.50;1.00
3876;DHT22;1953;51.222;6.624;2023-07-31T08:50:42;18.70;1.00
3876;DHT22;1953;51.222;6.624;2023-07-31T08:55:25;18.80;1.00
3876;DHT22;1953;51.222;6.624;2023-07-31T09:00:10;18.80;1.00
3876;DHT22;1953;51.222;6.624;2023-07-31T09:04:53;18.70;1.00
3876;DHT22;1953;51.222;6.624;2023-07-31T09:09:36;18.70;1.00
3876;DHT22;1953;51.222;6.624;2023-07-31T09:14:33;18.70;1.00
3876;DHT22;1953;51.222;6.624;2023-07-31T09:19:26;18.80;1.00
3876;DHT22;1953;51.222;6.624;2023-07-31T09:24:09;18.80;1.00
3876;DHT22;1953;51.222;6.624;2023-07-31T09:28:52;18.80;1.00
3876;DHT22;1953;51.222;6.624;2023-07-31T09:33:54;18.90;1.00
3876;DHT22;1953;51.222;6.624;2023-07-31T09:38:38;18.90;1.00
3876;DHT22;1953;51.222;6.624;2023-07-31T09:43:24;18.90;1.00
3876;DHT22;1953;51.222;6.624;2023-07-31T09:48:07;18.80;1.00
3876;DHT22;1953;51.222;6.624;2023-07-31T09:52:51;18.80;1.00
3876;DHT22;1953;51.222;6.624;2023-07-31T09:57:37;18.90;1.00
3876;DHT22;1953;51.222;6.624;2023-07-31T10:02:25;18.90;1.00
3876;DHT22;1953;51.222;6.624;2023-07-31T10:07:09;18.90;1.00
3876;DHT22;1953;51.222;6.624;2023-07-31T10:11:56;18.90;1.00
3876;DHT22;1953;51.222;6.624;2023-07-31T10:17:10;18.90;1.00
3876;DHT22;1953;51.222;6.624;2023-07-31T10:21:53;18.90;1.00
3876;DHT22;1953;51.222;6.624;2023-07-31T10:26:40;19.10;1.00
3876;DHT22;1953;51.222;6.624;2023-07-31T10:31:38;19.30;1.00
3876;DHT22;1953;51.222;6.624;2023-07-31T10:36:22;19.50;1.00
3876;DHT22;1953;51.222;6.624;2023-07-31T10:41:08;19.70;1.00
3876;DHT22;1953;51.222;6.624;2023-07-31T10:45:51;19.70;1.00
3876;DHT22;1953;51.222;6.624;2023-07-31T10:50:38;19.70;1.00
3876;DHT22;1953;51.222;6.624;2023-07-31T10:55:30;19.70;1.00
3876;DHT22;1953;51.222;6.624;2023-07-31T11:00:22;19.70;1.00
3876;DHT22;1953;51.222;6.624;2023-07-31T11:11:19;19.80;1.00
3876;DHT22;1953;51.222;6.624;2023-07-31T11:16:04;19.90;1.00
3876;DHT22;1953;51.222;6.624;2023-07-31T11:20:47;20.00;1.00
3876;DHT22;1953;51.222;6.624;2023-07-31T11:25:39;20.00;1.00
3876;DHT22;1953;51.222;6.624;2023-07-31T11:30:30;20.00;1.00
3876;DHT22;1953;51.222;6.624;2023-07-31T11:35:13;20.00;1.00
3876;DHT22;1953;51.222;6.624;2023-07-31T11:39:59;20.00;1.00
3876;DHT22;1953;51.222;6.624;2023-07-31T11:44:42;20.10;1.00
3876;DHT22;1953;51.222;6.624;2023-07-31T11:49:38;20.20;1.00
3876;DHT22;1953;51.222;6.624;2023-07-31T11:54:21;20.30;1.00
3876;DHT22;1953;51.222;6.624;2023-07-31T11:59:04;20.30;1.00
3876;DHT22;1953;51.222;6.624;2023-07-31T12:03:50;20.30;1.00
3876;DHT22;1953;51.222;6.624;2023-07-31T12:08:36;20.30;1.00
3876;DHT22;1953;51.222;6.624;2023-07-31T12:16:53;20.20;1.00
3876;DHT22;1953;51.222;6.624;2023-07-31T12:21:38;20.10;1.00
3876;DHT22;1953;51.222;6.624;2023-07-31T12:26:20;20.10;1.00
3876;DHT22;1953;51.222;6.624;2023-07-31T12:31:04;20.00;1.00
3876;DHT22;1953;51.222;6.624;2023-07-31T12:35:49;19.90;1.00
3876;DHT22;1953;51.222;6.624;2023-07-31T12:40:32;20.00;1.00
3876;DHT22;1953;51.222;6.624;2023-07-31T12:45:14;20.20;1.00
3876;DHT22;1953;51.222;6.624;2023-07-31T12:49:57;20.30;1.00
3876;DHT22;1953;51.222;6.624;2023-07-31T12:54:41;20.10;1.00
3876;DHT22;1953;51.222;6.624;2023-07-31T12:59:24;20.10;1.00
3876;DHT22;1953;51.222;6.624;2023-07-31T13:04:06;20.10;1.00
3876;DHT22;1953;51.222;6.624;2023-07-31T13:08:49;20.30;1.00
3876;DHT22;1953;51.222;6.624;2023-07-31T13:13:33;20.30;1.00
3876;DHT22;1953;51.222;6.624;2023-07-31T13:18:16;20.40;1.00
3876;DHT22;1953;51.222;6.624;2023-07-31T13:22:59;20.60;1.00
3876;DHT22;1953;51.222;6.624;2023-07-31T13:27:42;21.00;1.00
3876;DHT22;1953;51.222;6.624;2023-07-31T13:32:26;21.40;1.00
3876;DHT22;1953;51.222;6.624;2023-07-31T13:37:08;21.80;1.00
3876;DHT22;1953;51.222;6.624;2023-07-31T13:41:51;22.10;1.00
3876;DHT22;1953;51.222;6.624;2023-07-31T13:46:33;22.10;1.00
3876;DHT22;1953;51.222;6.624;2023-07-31T13:51:17;22.00;1.00
3876;DHT22;1953;51.222;6.624;2023-07-31T13:56:00;21.80;1.00
3876;DHT22;1953;51.222;6.624;2023-07-31T14:00:43;21.70;1.00
3876;DHT22;1953;51.222;6.624;2023-07-31T14:05:25;21.50;1.00
3876;DHT22;1953;51.222;6.624;2023-07-31T14:10:09;21.40;1.00
3876;DHT22;1953;51.222;6.624;2023-07-31T14:14:52;21.30;1.00
3876;DHT22;1953;51.222;6.624;2023-07-31T14:19:35;21.20;1.00
3876;DHT22;1953;51.222;6.624;2023-07-31T14:24:17;21.20;1.00
3876;DHT22;1953;51.222;6.624;2023-07-31T14:29:01;21.20;1.00
3876;DHT22;1953;51.222;6.624;2023-07-31T14:33:44;21.10;1.00
3876;DHT22;1953;51.222;6.624;2023-07-31T14:38:27;20.90;1.00
3876;DHT22;1953;51.222;6.624;2023-07-31T14:43:09;20.90;1.00
3876;DHT22;1953;51.222;6.624;2023-07-31T14:47:53;21.10;1.00
3876;DHT22;1953;51.222;6.624;2023-07-31T14:52:36;21.10;1.00
3876;DHT22;1953;51.222;6.624;2023-07-31T14:57:19;21.20;1.00
3876;DHT22;1953;51.222;6.624;2023-07-31T15:02:01;21.20;1.00
3876;DHT22;1953;51.222;6.624;2023-07-31T15:06:45;21.20;1.00
3876;DHT22;1953;51.222;6.624;2023-07-31T15:11:28;21.20;1.00
3876;DHT22;1953;51.222;6.624;2023-07-31T15:16:10;21.30;1.00
3876;DHT22;1953;51.222;6.624;2023-07-31T15:20:53;21.40;1.00
3876;DHT22;1953;51.222;6.624;2023-07-31T15:25:37;21.30;1.00
3876;DHT22;1953;51.222;6.624;2023-07-31T15:30:20;21.30;1.00
3876;DHT22;1953;51.222;6.624;2023-07-31T15:35:03;21.20;1.00
3876;DHT22;1953;51.222;6.624;2023-07-31T15:39:46;21.30;1.00
3876;DHT22;1953;51.222;6.624;2023-07-31T15:44:30;21.20;1.00
3876;DHT22;1953;51.222;6.624;2023-07-31T15:49:12;21.00;1.00
3876;DHT22;1953;51.222;6.624;2023-07-31T15:53:55;20.90;1.00
3876;DHT22;1953;51.222;6.624;2023-07-31T15:58:38;20.80;1.00
3876;DHT22;1953;51.222;6.624;2023-07-31T16:03:22;20.60;1.00
3876;DHT22;1953;51.222;6.624;2023-07-31T16:08:04;20.50;1.00
3876;DHT22;1953;51.222;6.624;2023-07-31T16:12:47;20.50;1.00
3876;DHT22;1953;51.222;6.624;2023-07-31T16:17:30;20.40;1.00
3876;DHT22;1953;51.222;6.624;2023-07-31T16:22:14;20.40;1.00
3876;DHT22;1953;51.222;6.624;2023-07-31T16:26:56;20.30;1.00
3876;DHT22;1953;51.222;6.624;2023-07-31T16:31:39;20.20;1.00
3876;DHT22;1953;51.222;6.624;2023-07-31T16:36:21;20.20;1.00
3876;DHT22;1953;51.222;6.624;2023-07-31T16:41:05;20.10;1.00
3876;DHT22;1953;51.222;6.624;2023-07-31T16:45:48;20.00;1.00
3876;DHT22;1953;51.222;6.624;2023-07-31T16:50:32;20.00;1.00
3876;DHT22;1953;51.222;6.624;2023-07-31T16:55:14;19.90;1.00
3876;DHT22;1953;51.222;6.624;2023-07-31T16:59:58;19.90;1.00
3876;DHT22;1953;51.222;6.624;2023-07-31T17:04:41;19.90;1.00
3876;DHT22;1953;51.222;6.624;2023-07-31T17:09:23;19.90;1.00
3876;DHT22;1953;51.222;6.624;2023-07-31T17:14:06;19.80;1.00
3876;DHT22;1953;51.222;6.624;2023-07-31T17:18:50;19.80;1.00
3876;DHT22;1953;51.222;6.624;2023-07-31T17:23:33;19.70;1.00
3876;DHT22;1953;51.222;6.624;2023-07-31T17:28:15;19.60;1.00
3876;DHT22;1953;51.222;6.624;2023-07-31T17:32:58;19.50;1.00
3876;DHT22;1953;51.222;6.624;2023-07-31T17:37:42;19.30;1.00
3876;DHT22;1953;51.222;6.624;2023-07-31T17:42:24;19.20;1.00
3876;DHT22;1953;51.222;6.624;2023-07-31T17:47:07;19.10;1.00
3876;DHT22;1953;51.222;6.624;2023-07-31T17:51:49;19.10;1.00
3876;DHT22;1953;51.222;6.624;2023-07-31T17:56:33;19.10;1.00
3876;DHT22;1953;51.222;6.624;2023-07-31T18:01:18;19.00;1.00
3876;DHT22;1953;51.222;6.624;2023-07-31T18:06:01;19.00;1.00
3876;DHT22;1953;51.222;6.624;2023-07-31T18:10:44;19.00;1.00
3876;DHT22;1953;51.222;6.624;2023-07-31T18:15:27;18.90;1.00
3876;DHT22;1953;51.222;6.624;2023-07-31T18:20:11;18.90;1.00
3876;DHT22;1953;51.222;6.624;2023-07-31T18:24:54;18.90;1.00
3876;DHT22;1953;51.222;6.624;2023-07-31T18:29:36;18.90;1.00
3876;DHT22;1953;51.222;6.624;2023-07-31T18:34:20;19.00;1.00
3876;DHT22;1953;51.222;6.624;2023-07-31T18:39:03;18.90;1.00
3876;DHT22;1953;51.222;6.624;2023-07-31T18:43:45;18.90;1.00
3876;DHT22;1953;51.222;6.624;2023-07-31T18:48:28;18.90;1.00
3876;DHT22;1953;51.222;6.624;2023-07-31T18:53:13;18.90;1.00
3876;DHT22;1953;51.222;6.624;2023-07-31T18:57:55;18.80;1.00
3876;DHT22;1953;51.222;6.624;2023-07-31T19:02:38;18.80;1.00
3876;DHT22;1953;51.222;6.624;2023-07-31T19:07:21;18.80;1.00
3876;DHT22;1953;51.222;6.624;2023-07-31T19:12:06;18.70;1.00
3876;DHT22;1953;51.222;6.624;2023-07-31T19:16:48;18.70;1.00
3876;DHT22;1953;51.222;6.624;2023-07-31T19:21:31;18.70;1.00
3876;DHT22;1953;51.222;6.624;2023-07-31T19:26:14;18.70;1.00
3876;DHT22;1953;51.222;6.624;2023-07-31T19:30:58;18.70;1.00
3876;DHT22;1953;51.222;6.624;2023-07-31T19:35:41;18.80;1.00
3876;DHT22;1953;51.222;6.624;2023-07-31T19:40:23;18.80;1.00
3876;DHT22;1953;51.222;6.624;2023-07-31T19:45:07;18.80;1.00
3876;DHT22;1953;51.222;6.624;2023-07-31T19:49:51;18.90;1.00
3876;DHT22;1953;51.222;6.624;2023-07-31T19:54:33;18.90;1.00
3876;DHT22;1953;51.222;6.624;2023-07-31T19:59:16;18.90;1.00
3876;DHT22;1953;51.222;6.624;2023-07-31T20:04:00;18.90;1.00
3876;DHT22;1953;51.222;6.624;2023-07-31T20:08:44;18.90;1.00
3876;DHT22;1953;51.222;6.624;2023-07-31T20:13:26;19.00;1.00
3876;DHT22;1953;51.222;6.624;2023-07-31T20:18:09;18.90;1.00
3876;DHT22;1953;51.222;6.624;2023-07-31T20:22:51;19.00;1.00
3876;DHT22;1953;51.222;6.624;2023-07-31T20:27:35;19.00;1.00
3876;DHT22;1953;51.222;6.624;2023-07-31T20:32:18;19.00;1.00
3876;DHT22;1953;51.222;6.624;2023-07-31T20:37:00;19.10;1.00
3876;DHT22;1953;51.222;6.624;2023-07-31T20:41:43;19.10;1.00
3876;DHT22;1953;51.222;6.624;2023-07-31T20:46:27;19.10;1.00
3876;DHT22;1953;51.222;6.624;2023-07-31T20:51:09;19.10;1.00
3876;DHT22;1953;51.222;6.624;2023-07-31T20:55:52;19.10;1.00
3876;DHT22;1953;51.222;6.624;2023-07-31T21:00:34;19.10;1.00
3876;DHT22;1953;51.222;6.624;2023-07-31T21:05:18;19.10;1.00
3876;DHT22;1953;51.222;6.624;2023-07-31T21:10:01;19.10;1.00
3876;DHT22;1953;51.222;6.624;2023-07-31T21:14:35;19.10;1.00
3876;DHT22;1953;51.222;6.624;2023-07-31T21:19:17;19.10;1.00
3876;DHT22;1953;51.222;6.624;2023-07-31T21:24:01;19.20;1.00
3876;DHT22;1953;51.222;6.624;2023-07-31T21:28:44;19.20;1.00
3876;DHT22;1953;51.222;6.624;2023-07-31T21:33:26;19.20;1.00
3876;DHT22;1953;51.222;6.624;2023-07-31T21:38:09;19.20;1.00
3876;DHT22;1953;51.222;6.624;2023-07-31T21:42:53;19.20;1.00
3876;DHT22;1953;51.222;6.624;2023-07-31T21:47:37;19.30;1.00
3876;DHT22;1953;51.222;6.624;2023-07-31T21:52:20;19.20;1.00
3876;DHT22;1953;51.222;6.624;2023-07-31T21:57:02;19.20;1.00
3876;DHT22;1953;51.222;6.624;2023-07-31T22:01:46;19.20;1.00
3876;DHT22;1953;51.222;6.624;2023-07-31T22:06:29;19.30;1.00
3876;DHT22;1953;51.222;6.624;2023-07-31T22:11:11;19.30;1.00
3876;DHT22;1953;51.222;6.624;2023-07-31T22:15:54;19.40;1.00
3876;DHT22;1953;51.222;6.624;2023-07-31T22:20:38;19.40;1.00
3876;DHT22;1953;51.222;6.624;2023-07-31T22:25:20;19.40;1.00
3876;DHT22;1953;51.222;6.624;2023-07-31T22:30:03;19.20;1.00
3876;DHT22;1953;51.222;6.624;2023-07-31T22:34:46;19.20;1.00
3876;DHT22;1953;51.222;6.624;2023-07-31T22:39:30;19.20;1.00
3876;DHT22;1953;51.222;6.624;2023-07-31T22:44:12;19.30;1.00
3876;DHT22;1953;51.222;6.624;2023-07-31T22:48:55;19.20;1.00
3876;DHT22;1953;51.222;6.624;2023-07-31T22:53:38;19.10;1.00
3876;DHT22;1953;51.222;6.624;2023-07-31T22:58:22;19.10;1.00
3876;DHT22;1953;51.222;6.624;2023-07-31T23:03:04;19.20;1.00
3876;DHT22;1953;51.222;6.624;2023-07-31T23:07:47;19.20;1.00
3876;DHT22;1953;51.222;6.624;2023-07-31T23:12:29;19.20;1.00
3876;DHT22;1953;51.222;6.624;2023-07-31T23:17:13;19.10;1.00
3876;DHT22;1953;51.222;6.624;2023-07-31T23:21:56;19.20;1.00
3876;DHT22;1953;51.222;6.624;2023-07-31T23:26:38;19.20;1.00
3876;DHT22;1953;51.222;6.624;2023-07-31T23:31:20;19.20;1.00
3876;DHT22;1953;51.222;6.624;2023-07-31T23:36:11;19.20;1.00
3876;DHT22;1953;51.222;6.624;2023-07-31T23:40:54;19.20;1.00
3876;DHT22;1953;51.222;6.624;2023-07-31T23:45:36;19.20;1.00
3876;DHT22;1953;51.222;6.624;2023-07-31T23:50:19;19.20;1.00
3876;DHT22;1953;51.222;6.624;2023-07-31T23:55:03;19.20;1.00
3876;DHT22;1953;51.222;6.624;2023-07-31T23:59:47;19.10;1.00
